Time;durP1;ratioP1;P1;durP2;ratioP2;P2;SDS_P1;SDS_P2;PMS_P1;PMS_P2;Temp;Humidity;BMP_temperature;BMP_pressure;BME280_temperature;BME280_humidity;BME280_pressure;Samples;Min_cycle;Max_cycle;Signal;HPM_P1;HPM_P2
2021/10/20 00:01:27;;;;;;;9.95;4.72;;;16.20;99.90;;;;;;5025968;28;20068;-75
2021/10/20 00:03:54;;;;;;;14.45;5.45;;;16.20;99.90;;;;;;5043673;28;20038;-76
2021/10/20 00:06:20;;;;;;;14.02;5.90;;;16.20;99.90;;;;;;5025736;28;20025;-78
2021/10/20 00:08:45;;;;;;;13.05;5.68;;;16.20;99.90;;;;;;5026128;28;20037;-72
2021/10/20 00:11:12;;;;;;;14.40;6.22;;;16.20;99.90;;;;;;5043741;28;20029;-73
2021/10/20 00:13:38;;;;;;;15.52;5.65;;;16.20;99.90;;;;;;5025989;28;20029;-73
2021/10/20 00:16:03;;;;;;;13.00;5.68;;;16.20;99.90;;;;;;5047261;28;20056;-74
2021/10/20 00:18:29;;;;;;;12.15;6.10;;;16.10;99.90;;;;;;5029697;28;20033;-74
2021/10/20 00:20:56;;;;;;;12.13;6.00;;;16.20;99.90;;;;;;5047205;28;20029;-75
2021/10/20 00:23:22;;;;;;;10.88;4.95;;;16.10;99.90;;;;;;5047304;28;20482;-76
2021/10/20 00:25:47;;;;;;;11.88;5.78;;;16.10;99.90;;;;;;5047013;28;20026;-75
2021/10/20 00:28:13;;;;;;;15.25;5.75;;;16.10;99.90;;;;;;5047090;28;20045;-73
2021/10/20 00:30:39;;;;;;;14.15;6.03;;;16.00;99.90;;;;;;5029262;28;20489;-74
2021/10/20 00:33:04;;;;;;;11.25;6.03;;;16.00;99.90;;;;;;5047009;28;20104;-73
2021/10/20 00:35:30;;;;;;;10.70;5.60;;;16.00;99.90;;;;;;5047439;28;20451;-75
2021/10/20 00:37:56;;;;;;;14.50;5.68;;;15.90;99.90;;;;;;5046343;28;20045;-73
2021/10/20 00:40:22;;;;;;;10.75;6.10;;;15.90;99.90;;;;;;5047354;28;20055;-75
2021/10/20 00:42:48;;;;;;;10.75;5.35;;;15.90;99.90;;;;;;5047222;28;20044;-72
2021/10/20 00:45:14;;;;;;;12.50;6.18;;;15.90;99.90;;;;;;5046317;28;20057;-74
2021/10/20 00:47:40;;;;;;;19.50;5.72;;;16.00;99.90;;;;;;5046913;28;20029;-73
2021/10/20 00:50:08;;;;;;;12.07;5.28;;;16.00;99.90;;;;;;5047006;28;20056;-73
2021/10/20 00:52:34;;;;;;;12.43;6.00;;;15.80;99.90;;;;;;5046465;28;20040;-72
2021/10/20 00:55:00;;;;;;;10.88;6.18;;;15.70;99.90;;;;;;5046667;28;20085;-74
2021/10/20 00:57:28;;;;;;;18.80;7.53;;;15.70;99.90;;;;;;5046981;28;20048;-74
2021/10/20 00:59:56;;;;;;;16.85;6.82;;;15.70;99.90;;;;;;5028667;28;20045;-74
2021/10/20 01:02:23;;;;;;;12.55;6.28;;;15.60;99.90;;;;;;5046468;28;20026;-75
2021/10/20 01:04:49;;;;;;;15.35;5.72;;;15.60;99.90;;;;;;5047023;28;20037;-75
2021/10/20 01:07:17;;;;;;;15.18;7.45;;;15.50;99.90;;;;;;5046014;28;20389;-74
2021/10/20 01:09:43;;;;;;;13.45;6.43;;;15.50;99.90;;;;;;5046758;28;20041;-75
2021/10/20 01:12:10;;;;;;;20.70;6.53;;;15.50;99.90;;;;;;5046490;28;20040;-74
2021/10/20 01:14:36;;;;;;;16.08;6.97;;;15.40;99.90;;;;;;5045986;28;20041;-75
2021/10/20 01:17:02;;;;;;;14.57;6.90;;;15.40;99.90;;;;;;5046529;28;20041;-76
2021/10/20 01:19:28;;;;;;;16.38;6.88;;;15.40;99.90;;;;;;5045995;28;20022;-76
2021/10/20 01:21:54;;;;;;;16.63;6.90;;;15.40;99.90;;;;;;5046347;28;20026;-75
2021/10/20 01:24:22;;;;;;;11.73;6.03;;;15.20;99.90;;;;;;5046747;28;20056;-77
2021/10/20 01:26:53;;;;;;;18.50;7.00;;;15.30;99.90;;;;;;5027553;28;20100;-76
2021/10/20 01:29:21;;;;;;;11.15;6.45;;;15.30;99.90;;;;;;5046146;28;20034;-75
2021/10/20 01:31:49;;;;;;;14.65;6.45;;;15.30;99.90;;;;;;5046098;28;20038;-77
2021/10/20 01:34:15;;;;;;;19.13;7.25;;;15.30;99.90;;;;;;5046112;28;20029;-75
2021/10/20 01:36:42;;;;;;;14.73;6.32;;;15.30;99.90;;;;;;5045766;28;20029;-74
2021/10/20 01:39:09;;;;;;;13.50;6.38;;;15.30;99.90;;;;;;5045949;28;20041;-74
2021/10/20 01:41:36;;;;;;;9.68;5.07;;;15.20;99.90;;;;;;5045179;28;20053;-75
2021/10/20 01:44:03;;;;;;;13.18;6.03;;;15.20;99.90;;;;;;5046116;28;20359;-75
2021/10/20 01:46:28;;;;;;;13.15;5.70;;;15.20;99.90;;;;;;5027933;28;20421;-75
2021/10/20 01:48:54;;;;;;;10.60;5.13;;;15.20;99.90;;;;;;5045599;28;20038;-75
2021/10/20 01:51:20;;;;;;;10.68;5.60;;;15.10;99.90;;;;;;5028054;28;20096;-77
2021/10/20 01:53:45;;;;;;;21.08;7.05;;;15.20;99.90;;;;;;5045624;28;20049;-75
2021/10/20 01:56:12;;;;;;;12.10;4.85;;;15.10;99.90;;;;;;5045510;28;20049;-76
2021/10/20 01:58:40;;;;;;;9.98;4.97;;;15.10;99.90;;;;;;5045548;28;20025;-74
2021/10/20 02:01:07;;;;;;;12.95;5.30;;;15.10;99.90;;;;;;5045775;28;20029;-75
2021/10/20 02:03:35;;;;;;;11.80;5.32;;;15.10;99.90;;;;;;5027425;28;20029;-75
2021/10/20 02:06:03;;;;;;;12.07;5.10;;;15.10;99.90;;;;;;5026992;28;20052;-75
2021/10/20 02:08:28;;;;;;;9.88;5.38;;;15.00;99.90;;;;;;5027283;28;20076;-76
2021/10/20 02:10:54;;;;;;;14.90;5.60;;;15.00;99.90;;;;;;5044976;28;20029;-76
2021/10/20 02:13:21;;;;;;;8.15;4.20;;;14.90;99.90;;;;;;5044786;28;20029;-75
2021/10/20 02:15:46;;;;;;;8.38;4.57;;;14.90;99.90;;;;;;5045362;28;20044;-74
2021/10/20 02:18:12;;;;;;;9.20;4.47;;;14.90;99.90;;;;;;5045175;28;20021;-77
2021/10/20 02:20:38;;;;;;;16.00;4.65;;;14.80;99.90;;;;;;5044861;28;20021;-76
2021/10/20 02:23:04;;;;;;;13.45;5.13;;;14.80;99.90;;;;;;5044508;28;20044;-76
2021/10/20 02:25:30;;;;;;;8.48;4.45;;;14.80;99.90;;;;;;5027190;28;20030;-78
2021/10/20 02:27:56;;;;;;;9.05;4.53;;;14.70;99.90;;;;;;5027285;28;20031;-78
2021/10/20 02:30:22;;;;;;;10.20;4.72;;;14.70;99.90;;;;;;5044475;28;20044;-75
2021/10/20 02:32:47;;;;;;;11.35;4.28;;;14.70;99.90;;;;;;5045624;28;20030;-75
2021/10/20 02:35:13;;;;;;;11.80;6.00;;;14.70;99.90;;;;;;5027240;28;20056;-76
2021/10/20 02:37:39;;;;;;;11.65;4.75;;;14.70;99.90;;;;;;5043692;28;20053;-74
2021/10/20 02:40:07;;;;;;;8.43;4.43;;;14.70;99.90;;;;;;5044597;28;20486;-77
2021/10/20 02:42:34;;;;;;;7.85;4.18;;;14.70;99.90;;;;;;5026461;28;20026;-76
2021/10/20 02:45:00;;;;;;;8.75;4.55;;;14.60;99.90;;;;;;5044736;28;20033;-77
2021/10/20 02:47:25;;;;;;;8.00;4.18;;;14.60;99.90;;;;;;5026999;28;20562;-76
2021/10/20 02:49:51;;;;;;;7.43;3.88;;;14.60;99.90;;;;;;5044712;28;20049;-76
2021/10/20 02:52:18;;;;;;;12.70;4.47;;;14.70;99.90;;;;;;5044402;28;20067;-75
2021/10/20 02:54:44;;;;;;;11.20;4.95;;;14.60;99.90;;;;;;5026409;28;20089;-76
2021/10/20 02:57:10;;;;;;;13.38;4.22;;;14.60;99.90;;;;;;5026492;28;20095;-75
2021/10/20 02:59:35;;;;;;;7.05;3.95;;;14.60;99.90;;;;;;5044219;28;20033;-75
2021/10/20 03:02:01;;;;;;;8.23;3.97;;;14.70;99.90;;;;;;5044746;28;20034;-76
2021/10/20 03:04:27;;;;;;;12.20;4.10;;;14.60;99.90;;;;;;5043836;28;20052;-76
2021/10/20 03:06:52;;;;;;;8.35;3.90;;;14.70;99.90;;;;;;5044304;28;20056;-75
2021/10/20 03:09:18;;;;;;;9.85;4.90;;;14.60;99.90;;;;;;5044691;28;20045;-76
2021/10/20 03:11:43;;;;;;;10.80;4.45;;;14.50;99.90;;;;;;5026817;28;20393;-76
2021/10/20 03:14:09;;;;;;;8.80;4.22;;;14.60;99.90;;;;;;5044203;28;20034;-76
2021/10/20 03:16:35;;;;;;;9.55;4.28;;;14.60;99.90;;;;;;5044538;28;20029;-76
2021/10/20 03:19:01;;;;;;;18.83;4.43;;;14.60;99.90;;;;;;5043850;28;20025;-76
2021/10/20 03:21:26;;;;;;;6.90;4.10;;;14.60;99.90;;;;;;5044162;28;20546;-77
2021/10/20 03:23:52;;;;;;;6.65;3.25;;;14.60;99.90;;;;;;5044599;28;20045;-76
2021/10/20 03:26:18;;;;;;;10.50;3.85;;;14.60;99.90;;;;;;5025919;28;20087;-78
2021/10/20 03:28:44;;;;;;;7.88;3.95;;;14.60;99.90;;;;;;5025718;28;20045;-79
2021/10/20 03:31:09;;;;;;;9.07;3.95;;;14.60;99.90;;;;;;5044296;28;20029;-76
2021/10/20 03:33:35;;;;;;;18.25;4.68;;;14.60;99.90;;;;;;5043974;28;20030;-75
2021/10/20 03:36:01;;;;;;;23.42;4.88;;;14.60;99.90;;;;;;5044096;28;20029;-75
2021/10/20 03:38:27;;;;;;;6.10;3.28;;;14.60;99.90;;;;;;5043693;28;20056;-77
2021/10/20 03:40:52;;;;;;;7.05;3.80;;;14.60;99.90;;;;;;5044061;28;20034;-75
2021/10/20 03:43:18;;;;;;;6.20;3.67;;;14.60;99.90;;;;;;5044376;28;20060;-72
2021/10/20 03:45:43;;;;;;;6.90;3.28;;;14.60;99.90;;;;;;5043467;28;20041;-75
2021/10/20 03:48:09;;;;;;;8.98;3.88;;;14.60;99.90;;;;;;5025915;28;20049;-75
2021/10/20 03:50:34;;;;;;;8.00;3.50;;;14.60;99.90;;;;;;5029888;28;20029;-75
2021/10/20 03:53:00;;;;;;;6.38;3.70;;;14.60;99.90;;;;;;5047868;28;20132;-74
2021/10/20 03:55:26;;;;;;;7.68;3.45;;;14.60;99.90;;;;;;5048043;28;20060;-76
2021/10/20 03:57:53;;;;;;;17.48;4.10;;;14.70;99.90;;;;;;5048296;28;20032;-77
2021/10/20 04:00:20;;;;;;;7.72;4.10;;;14.70;99.90;;;;;;5029675;28;20067;-74
2021/10/20 04:02:46;;;;;;;7.38;3.30;;;14.80;99.90;;;;;;5029902;28;20440;-73
2021/10/20 04:05:14;;;;;;;14.85;4.50;;;14.80;99.90;;;;;;5047869;28;20028;-73
2021/10/20 04:07:40;;;;;;;9.02;3.60;;;14.80;99.90;;;;;;5047096;28;20052;-73
2021/10/20 04:10:08;;;;;;;8.63;3.65;;;14.80;99.90;;;;;;5047547;28;20045;-74
2021/10/20 04:12:37;;;;;;;8.13;3.65;;;14.80;99.90;;;;;;5029643;28;20033;-77
2021/10/20 04:15:03;;;;;;;7.50;3.95;;;14.80;99.90;;;;;;5047286;28;20072;-75
2021/10/20 04:17:29;;;;;;;5.78;3.30;;;14.90;99.90;;;;;;5047435;28;20025;-76
2021/10/20 04:19:55;;;;;;;7.47;3.20;;;14.80;99.90;;;;;;5029872;28;20389;-73
2021/10/20 04:22:21;;;;;;;8.50;3.30;;;14.90;99.90;;;;;;5046715;28;20033;-74
2021/10/20 04:24:46;;;;;;;10.93;3.65;;;14.90;99.90;;;;;;5047307;28;20036;-74
2021/10/20 04:27:12;;;;;;;8.25;3.42;;;14.90;99.90;;;;;;5047031;28;20034;-73
2021/10/20 04:29:37;;;;;;;5.53;3.17;;;14.90;99.90;;;;;;5046976;28;20045;-77
2021/10/20 04:32:03;;;;;;;10.85;4.05;;;14.90;99.90;;;;;;5046831;28;20032;-73
2021/10/20 04:34:28;;;;;;;9.52;3.55;;;14.90;99.90;;;;;;5047099;28;20026;-73
2021/10/20 04:36:54;;;;;;;7.82;3.83;;;14.90;99.90;;;;;;5046492;28;20123;-76
2021/10/20 04:39:20;;;;;;;5.30;3.20;;;14.90;99.90;;;;;;5029089;28;20025;-75
2021/10/20 04:41:45;;;;;;;7.43;3.20;;;14.90;99.90;;;;;;5029394;28;20128;-74
2021/10/20 04:44:11;;;;;;;13.65;4.07;;;15.00;99.90;;;;;;5029248;28;20053;-77
2021/10/20 04:46:37;;;;;;;6.47;3.17;;;15.00;99.90;;;;;;5047103;28;20021;-74
2021/10/20 04:49:03;;;;;;;8.48;3.75;;;15.00;99.90;;;;;;5046450;28;20044;-74
2021/10/20 04:51:28;;;;;;;11.00;3.72;;;15.00;99.90;;;;;;5046822;28;20032;-74
2021/10/20 04:53:54;;;;;;;9.88;3.58;;;14.90;99.90;;;;;;5046732;28;20033;-74
2021/10/20 04:56:20;;;;;;;7.32;3.05;;;15.00;99.90;;;;;;5046916;28;20087;-73
2021/10/20 04:58:45;;;;;;;8.40;3.67;;;14.90;99.90;;;;;;5046762;28;20044;-74
2021/10/20 05:01:11;;;;;;;8.82;3.95;;;14.90;99.90;;;;;;5045404;28;20095;-74
2021/10/20 05:03:36;;;;;;;8.25;4.20;;;14.90;99.90;;;;;;5046383;28;20037;-73
2021/10/20 05:06:02;;;;;;;12.63;3.88;;;14.90;99.90;;;;;;5046537;28;20029;-74
2021/10/20 05:08:28;;;;;;;20.98;3.95;;;14.90;99.90;;;;;;5028479;28;20401;-72
2021/10/20 05:10:53;;;;;;;9.80;4.05;;;14.90;99.90;;;;;;5045674;28;20029;-74
2021/10/20 05:13:19;;;;;;;14.00;4.28;;;14.80;99.90;;;;;;5046460;28;20026;-73
2021/10/20 05:15:44;;;;;;;10.00;4.53;;;14.80;99.90;;;;;;5046084;28;20060;-74
2021/10/20 05:18:11;;;;;;;5.35;2.85;;;14.80;99.90;;;;;;5028439;28;20033;-73
2021/10/20 05:20:36;;;;;;;7.95;3.45;;;14.80;99.90;;;;;;5046451;28;20049;-73
2021/10/20 05:23:02;;;;;;;10.40;3.72;;;14.80;99.90;;;;;;5045788;28;20037;-74
2021/10/20 05:25:28;;;;;;;6.70;3.53;;;14.90;99.90;;;;;;5045686;28;20044;-73
2021/10/20 05:27:54;;;;;;;12.00;4.50;;;14.80;99.90;;;;;;5046345;28;20041;-73
2021/10/20 05:30:20;;;;;;;9.80;3.60;;;14.90;99.90;;;;;;5045657;28;20036;-75
2021/10/20 05:32:46;;;;;;;10.10;3.65;;;14.90;99.90;;;;;;5027989;28;20063;-74
2021/10/20 05:35:18;;;;;;;9.55;3.75;;;14.90;99.90;;;;;;5045987;28;20030;-74
2021/10/20 05:37:45;;;;;;;11.60;3.60;;;14.80;99.90;;;;;;5045566;28;20045;-74
2021/10/20 05:40:11;;;;;;;9.43;3.67;;;14.80;99.90;;;;;;5044539;28;20053;-71
2021/10/20 05:42:36;;;;;;;9.00;3.75;;;14.90;99.90;;;;;;5041743;28;20045;-72
2021/10/20 05:45:03;;;;;;;7.53;3.72;;;14.90;99.90;;;;;;5022225;28;20033;-74
2021/10/20 05:47:28;;;;;;;8.90;3.88;;;14.80;99.90;;;;;;5038956;28;20061;-73
2021/10/20 05:49:54;;;;;;;12.05;4.38;;;14.80;99.90;;;;;;5045860;28;20049;-72
2021/10/20 05:52:21;;;;;;;10.02;4.18;;;14.80;99.90;;;;;;5042398;28;20084;-73
2021/10/20 05:54:47;;;;;;;8.30;2.97;;;14.80;99.90;;;;;;5032440;28;20025;-71
2021/10/20 05:57:13;;;;;;;6.10;3.03;;;14.80;99.90;;;;;;5037139;28;20036;-72
2021/10/20 05:59:38;;;;;;;7.13;3.47;;;14.80;99.90;;;;;;5029850;28;20029;-71
2021/10/20 06:02:04;;;;;;;5.90;2.85;;;14.80;99.90;;;;;;5043313;28;20935;-71
2021/10/20 06:04:29;;;;;;;5.82;2.78;;;14.80;99.90;;;;;;5044491;28;20036;-70
2021/10/20 06:06:55;;;;;;;10.32;4.38;;;14.80;99.90;;;;;;5045390;28;20030;-72
2021/10/20 06:09:22;;;;;;;9.32;4.10;;;14.80;99.90;;;;;;5042143;28;20105;-72
2021/10/20 06:11:47;;;;;;;14.95;4.25;;;14.80;99.90;;;;;;5035016;28;20025;-72
2021/10/20 06:14:13;;;;;;;5.55;3.17;;;14.80;99.90;;;;;;5042650;28;20036;-71
2021/10/20 06:16:41;;;;;;;6.70;3.20;;;14.70;99.90;;;;;;5045242;28;20067;-72
2021/10/20 06:19:07;;;;;;;12.30;4.18;;;14.80;99.90;;;;;;5045280;28;20033;-70
2021/10/20 06:21:33;;;;;;;5.95;3.47;;;14.90;99.90;;;;;;5045230;28;20043;-72
2021/10/20 06:23:59;;;;;;;11.43;3.28;;;14.80;99.90;;;;;;5043956;28;20076;-70
2021/10/20 06:26:24;;;;;;;10.85;3.72;;;14.70;99.90;;;;;;5043550;28;20030;-74
2021/10/20 06:28:53;;;;;;;10.85;3.50;;;14.80;99.90;;;;;;5043741;28;20052;-74
2021/10/20 06:31:19;;;;;;;6.35;2.90;;;14.80;99.90;;;;;;5045119;28;20136;-74
2021/10/20 06:33:45;;;;;;;16.42;4.10;;;14.80;99.90;;;;;;5044526;28;20107;-74
2021/10/20 06:36:27;;;;;;;11.57;3.75;;;14.80;99.90;;;;;;5044533;28;20468;-73
2021/10/20 06:38:54;;;;;;;6.25;3.17;;;14.90;99.90;;;;;;5043751;28;20053;-77
2021/10/20 06:41:21;;;;;;;8.35;3.25;;;14.90;99.90;;;;;;5026936;28;20397;-74
2021/10/20 06:43:47;;;;;;;7.97;3.83;;;14.90;99.90;;;;;;5043914;28;20029;-73
2021/10/20 06:46:13;;;;;;;11.00;4.07;;;14.90;99.90;;;;;;5044758;28;20040;-73
2021/10/20 06:48:39;;;;;;;4.90;2.58;;;14.90;99.90;;;;;;5043272;28;20049;-71
2021/10/20 06:51:06;;;;;;;14.73;3.75;;;15.00;99.90;;;;;;5043481;28;20029;-74
2021/10/20 06:53:33;;;;;;;16.05;4.47;;;14.90;99.90;;;;;;5044422;28;20064;-73
2021/10/20 06:56:01;;;;;;;8.27;3.95;;;15.00;99.90;;;;;;5043837;28;20034;-74
2021/10/20 06:58:27;;;;;;;5.90;3.58;;;15.00;99.90;;;;;;5044732;28;20021;-75
2021/10/20 07:00:52;;;;;;;6.28;3.63;;;15.00;99.90;;;;;;5043788;28;20064;-74
2021/10/20 07:03:18;;;;;;;10.07;4.18;;;15.00;99.90;;;;;;5044617;28;20099;-74
2021/10/20 07:05:43;;;;;;;10.18;3.55;;;15.00;99.90;;;;;;5044171;28;20029;-74
2021/10/20 07:08:09;;;;;;;8.73;4.00;;;15.10;99.90;;;;;;5044030;28;20056;-71
2021/10/20 07:10:36;;;;;;;7.10;3.88;;;15.10;99.90;;;;;;5044386;28;20085;-73
2021/10/20 07:13:05;;;;;;;10.32;4.28;;;15.10;99.90;;;;;;5044489;28;20045;-72
2021/10/20 07:15:31;;;;;;;8.20;4.07;;;15.10;99.90;;;;;;5044133;28;20037;-73
2021/10/20 07:17:58;;;;;;;9.27;3.83;;;15.20;99.90;;;;;;5044337;28;20037;-75
2021/10/20 07:20:24;;;;;;;16.23;5.07;;;15.20;99.90;;;;;;5025540;28;20033;-75
2021/10/20 07:22:51;;;;;;;7.57;3.90;;;15.30;99.90;;;;;;5043255;28;20056;-74
2021/10/20 07:25:18;;;;;;;10.73;5.00;;;15.30;99.90;;;;;;5044042;28;20040;-72
2021/10/20 07:27:48;;;;;;;12.18;4.28;;;15.30;99.90;;;;;;5044877;28;20033;-73
2021/10/20 07:30:16;;;;;;;9.00;4.18;;;15.40;99.90;;;;;;5043698;28;20088;-73
2021/10/20 07:32:42;;;;;;;6.43;3.33;;;15.40;99.90;;;;;;5041449;28;20034;-73
2021/10/20 07:35:11;;;;;;;13.18;5.60;;;15.50;99.90;;;;;;5032935;28;20028;-73
2021/10/20 07:37:38;;;;;;;7.82;4.40;;;15.50;99.90;;;;;;5027034;28;20080;-71
2021/10/20 07:40:05;;;;;;;9.10;4.03;;;15.60;99.90;;;;;;5044416;28;20131;-72
2021/10/20 07:42:30;;;;;;;11.45;4.65;;;15.60;99.90;;;;;;5042376;28;20038;-72
2021/10/20 07:44:56;;;;;;;10.68;4.82;;;15.50;99.90;;;;;;5042756;28;20029;-73
2021/10/20 07:47:26;;;;;;;12.02;4.25;;;15.60;99.90;;;;;;5025840;28;20029;-73
2021/10/20 07:49:59;;;;;;;15.35;3.58;;;15.60;99.90;;;;;;5042628;28;20056;-75
2021/10/20 07:52:26;;;;;;;20.20;3.90;;;15.60;99.90;;;;;;5025221;28;20041;-74
2021/10/20 07:54:54;;;;;;;6.30;3.53;;;15.60;99.90;;;;;;5043809;28;20029;-74
2021/10/20 07:57:23;;;;;;;11.40;4.40;;;15.60;99.90;;;;;;5024708;28;20022;-74
2021/10/20 07:59:48;;;;;;;6.82;3.60;;;15.70;99.90;;;;;;5044010;28;20112;-74
2021/10/20 08:02:14;;;;;;;12.02;4.22;;;15.70;99.90;;;;;;5043364;28;20029;-75
2021/10/20 08:04:42;;;;;;;9.05;4.47;;;15.70;99.90;;;;;;5043419;28;20397;-75
2021/10/20 08:07:08;;;;;;;9.60;4.40;;;15.70;99.90;;;;;;5024927;28;20089;-74
2021/10/20 08:09:34;;;;;;;6.50;4.18;;;15.70;99.90;;;;;;5043875;28;20041;-72
2021/10/20 08:11:59;;;;;;;24.98;5.20;;;15.80;99.90;;;;;;5041840;28;20033;-73
2021/10/20 08:14:25;;;;;;;7.55;3.97;;;15.70;99.90;;;;;;5043351;28;20413;-72
2021/10/20 08:16:52;;;;;;;8.27;4.38;;;15.80;99.90;;;;;;5043535;28;20436;-72
2021/10/20 08:19:18;;;;;;;10.40;4.38;;;15.80;99.90;;;;;;5024386;28;20044;-73
2021/10/20 08:21:45;;;;;;;11.65;4.32;;;15.80;99.90;;;;;;5034135;28;20104;-74
2021/10/20 08:24:11;;;;;;;8.50;3.67;;;15.80;99.90;;;;;;5043652;28;20021;-72
2021/10/20 08:26:36;;;;;;;12.35;4.15;;;16.00;99.90;;;;;;5042682;28;20037;-72
2021/10/20 08:29:02;;;;;;;10.73;4.22;;;15.90;99.90;;;;;;5024452;28;20068;-74
2021/10/20 08:31:28;;;;;;;13.00;4.30;;;15.90;99.90;;;;;;5037076;28;20029;-77
2021/10/20 08:33:53;;;;;;;8.95;3.67;;;15.90;99.90;;;;;;5034652;28;20025;-74
2021/10/20 08:36:20;;;;;;;7.75;4.13;;;15.80;99.90;;;;;;5046123;28;20063;-74
2021/10/20 08:38:46;;;;;;;8.00;3.28;;;15.80;99.90;;;;;;5039983;28;20501;-74
2021/10/20 08:41:13;;;;;;;10.93;4.25;;;15.80;99.90;;;;;;5046346;28;20053;-71
2021/10/20 08:43:39;;;;;;;8.27;4.18;;;15.80;99.90;;;;;;5047242;28;20025;-73
2021/10/20 08:46:05;;;;;;;9.45;3.15;;;15.80;99.90;;;;;;5046842;28;20081;-73
2021/10/20 08:48:32;;;;;;;7.78;3.30;;;15.80;99.90;;;;;;5021591;28;20069;-73
2021/10/20 08:51:01;;;;;;;6.65;3.72;;;15.80;99.90;;;;;;5037024;28;20033;-74
2021/10/20 08:53:28;;;;;;;12.88;4.57;;;15.80;99.90;;;;;;5046196;28;20045;-72
2021/10/20 08:55:55;;;;;;;5.63;3.05;;;15.90;99.90;;;;;;5046861;28;20045;-74
2021/10/20 08:58:22;;;;;;;10.35;4.15;;;15.90;99.90;;;;;;5046930;28;20029;-74
2021/10/20 09:00:48;;;;;;;9.60;4.00;;;15.90;99.90;;;;;;5046780;28;20024;-71
2021/10/20 09:03:14;;;;;;;9.18;4.03;;;15.90;99.90;;;;;;5046683;28;20034;-73
2021/10/20 09:05:40;;;;;;;6.82;3.90;;;15.90;99.90;;;;;;5046411;28;20025;-73
2021/10/20 09:08:06;;;;;;;9.30;4.00;;;15.90;99.90;;;;;;5046380;28;20028;-72
2021/10/20 09:10:33;;;;;;;8.45;3.78;;;15.90;99.90;;;;;;5046352;28;20025;-74
2021/10/20 09:13:01;;;;;;;12.52;4.32;;;16.00;99.90;;;;;;5046167;28;20032;-75
2021/10/20 09:15:33;;;;;;;14.65;5.15;;;16.00;99.90;;;;;;5037916;28;20121;-75
2021/10/20 09:18:09;;;;;;;8.93;3.92;;;16.00;99.90;;;;;;5045501;28;20022;-74
2021/10/20 09:20:38;;;;;;;9.25;3.58;;;16.00;99.90;;;;;;5024102;28;20064;-72
2021/10/20 09:23:13;;;;;;;8.07;4.85;;;16.10;99.90;;;;;;5033943;28;20034;-75
2021/10/20 09:25:56;;;;;;;10.00;4.93;;;16.10;99.90;;;;;;5040117;28;20470;-71
2021/10/20 09:28:23;;;;;;;8.43;4.10;;;16.30;99.90;;;;;;5043930;28;20048;-73
2021/10/20 09:30:50;;;;;;;8.55;4.13;;;16.30;99.90;;;;;;5041324;28;20031;-72
2021/10/20 09:33:17;;;;;;;10.65;4.13;;;16.30;99.90;;;;;;5030692;28;20113;-74
2021/10/20 09:35:43;;;;;;;13.02;3.13;;;16.30;99.90;;;;;;5045448;28;20120;-74
2021/10/20 09:38:10;;;;;;;6.72;3.50;;;16.20;99.90;;;;;;5044727;28;20069;-74
2021/10/20 09:40:46;;;;;;;10.85;4.03;;;16.30;99.90;;;;;;5045633;28;20022;-76
2021/10/20 09:43:20;;;;;;;8.70;3.72;;;16.20;99.90;;;;;;5023680;28;20494;-73
2021/10/20 09:45:48;;;;;;;6.70;3.45;;;16.30;99.90;;;;;;5034501;28;20091;-72
2021/10/20 09:48:16;;;;;;;11.90;3.17;;;16.20;99.90;;;;;;5030166;28;20039;-72
2021/10/20 09:51:06;;;;;;;6.75;3.70;;;16.30;99.90;;;;;;5043923;28;20032;-72
2021/10/20 09:53:35;;;;;;;10.18;3.30;;;16.30;99.90;;;;;;5025572;28;20080;-73
2021/10/20 09:56:18;;;;;;;4.45;2.55;;;16.20;99.90;;;;;;5023941;28;20033;-73
2021/10/20 09:58:46;;;;;;;7.32;3.20;;;16.30;99.90;;;;;;5026794;28;20033;-73
2021/10/20 10:01:13;;;;;;;7.95;3.47;;;16.30;99.90;;;;;;5027953;28;20393;-73
2021/10/20 10:03:41;;;;;;;7.20;3.67;;;16.30;99.90;;;;;;5044345;28;20025;-72
2021/10/20 10:06:07;;;;;;;5.07;3.20;;;16.20;99.90;;;;;;5043124;28;20080;-72
2021/10/20 10:08:32;;;;;;;8.98;3.60;;;16.30;99.90;;;;;;5044469;28;20041;-73
2021/10/20 10:11:01;;;;;;;8.32;3.35;;;16.40;99.90;;;;;;5043973;28;20035;-76
2021/10/20 10:13:46;;;;;;;6.80;3.63;;;16.40;99.90;;;;;;5045256;28;20021;-75
2021/10/20 10:16:14;;;;;;;10.48;4.13;;;16.30;99.90;;;;;;5027160;28;20060;-72
2021/10/20 10:18:40;;;;;;;8.80;4.75;;;16.20;99.90;;;;;;5044830;28;20025;-74
2021/10/20 10:21:28;;;;;;;13.68;4.32;;;16.20;99.90;;;;;;5045491;28;20089;-74
2021/10/20 10:23:57;;;;;;;8.90;4.32;;;16.30;99.90;;;;;;5046370;28;20033;-74
2021/10/20 10:26:26;;;;;;;8.23;3.08;;;16.30;99.90;;;;;;5039603;28;20034;-74
2021/10/20 10:29:13;;;;;;;8.48;3.42;;;16.40;99.90;;;;;;5017515;28;20393;-73
2021/10/20 10:31:44;;;;;;;4.88;2.72;;;16.50;99.90;;;;;;5033141;28;20044;-73
2021/10/20 10:34:27;;;;;;;8.80;3.40;;;16.60;99.90;;;;;;5040589;28;20095;-72
2021/10/20 10:36:54;;;;;;;5.85;3.15;;;16.60;99.90;;;;;;5044251;28;20024;-74
2021/10/20 10:39:21;;;;;;;7.22;3.42;;;16.60;99.90;;;;;;5034796;28;20034;-74
2021/10/20 10:41:49;;;;;;;11.40;3.88;;;16.60;99.90;;;;;;5023971;28;20026;-74
2021/10/20 10:44:29;;;;;;;6.07;3.60;;;16.60;99.90;;;;;;5023636;28;20033;-74
2021/10/20 10:49:54;;;;;;;7.35;3.30;;;16.60;99.90;;;;;;5018167;28;20073;-75
2021/10/20 10:52:41;;;;;;;7.97;3.65;;;16.60;99.90;;;;;;5025321;28;20145;-75
2021/10/20 10:55:18;;;;;;;8.00;3.38;;;16.60;99.90;;;;;;5006889;28;20037;-72
2021/10/20 10:57:52;;;;;;;8.75;3.85;;;16.60;99.90;;;;;;5024918;28;20033;-73
2021/10/20 11:00:18;;;;;;;18.40;3.45;;;16.70;99.90;;;;;;5024674;28;20073;-74
2021/10/20 11:02:52;;;;;;;7.38;3.17;;;16.70;99.90;;;;;;5023395;28;20029;-75
2021/10/20 11:05:38;;;;;;;7.20;3.65;;;16.70;99.90;;;;;;5025137;28;20029;-74
2021/10/20 11:08:12;;;;;;;14.50;4.13;;;16.70;99.90;;;;;;5024177;28;20034;-75
2021/10/20 11:10:40;;;;;;;5.70;2.92;;;16.70;99.90;;;;;;5024866;28;20461;-73
2021/10/20 11:13:07;;;;;;;12.02;3.90;;;16.70;99.90;;;;;;5024744;28;20025;-75
2021/10/20 11:15:36;;;;;;;4.72;3.03;;;16.80;99.90;;;;;;5006795;28;20026;-75
2021/10/20 11:18:03;;;;;;;6.75;3.63;;;16.80;99.90;;;;;;5024149;28;20055;-75
2021/10/20 11:20:38;;;;;;;6.32;3.35;;;16.80;99.90;;;;;;5020806;28;20374;-74
2021/10/20 11:23:07;;;;;;;7.72;3.35;;;16.80;99.90;;;;;;5024641;28;20097;-74
2021/10/20 11:25:36;;;;;;;10.63;4.03;;;16.80;99.90;;;;;;5023298;28;20114;-74
2021/10/20 11:28:05;;;;;;;6.70;3.42;;;16.80;99.90;;;;;;5024101;28;20025;-74
2021/10/20 11:30:32;;;;;;;11.90;3.42;;;16.80;99.90;;;;;;5023125;28;20101;-74
2021/10/20 11:33:01;;;;;;;8.15;3.75;;;16.90;99.90;;;;;;5024288;28;20378;-73
2021/10/20 11:35:31;;;;;;;5.28;2.95;;;16.80;99.90;;;;;;5024016;28;20057;-75
2021/10/20 11:38:01;;;;;;;7.07;3.67;;;16.90;99.90;;;;;;5023986;28;20054;-73
2021/10/20 11:40:34;;;;;;;10.50;4.13;;;16.90;99.90;;;;;;5023214;28;20026;-72
2021/10/20 11:43:00;;;;;;;7.35;3.45;;;16.90;99.90;;;;;;5024241;28;20030;-74
2021/10/20 11:45:31;;;;;;;5.88;3.22;;;16.90;99.90;;;;;;5024547;28;20037;-76
2021/10/20 11:48:01;;;;;;;7.47;3.97;;;16.90;99.90;;;;;;5024379;28;20030;-74
2021/10/20 11:50:28;;;;;;;6.57;3.55;;;16.90;99.90;;;;;;5024371;28;20038;-72
2021/10/20 11:53:06;;;;;;;8.60;3.72;;;17.00;99.90;;;;;;5023002;28;20029;-73
2021/10/20 11:55:32;;;;;;;8.07;3.05;;;17.20;99.90;;;;;;5024162;28;20049;-74
2021/10/20 11:57:58;;;;;;;10.15;4.15;;;17.50;99.90;;;;;;5024260;28;20037;-70
2021/10/20 12:00:25;;;;;;;15.07;3.78;;;17.90;99.90;;;;;;5024317;28;20475;-74
2021/10/20 12:02:50;;;;;;;9.32;3.97;;;18.20;99.90;;;;;;5023889;28;20033;-75
2021/10/20 12:05:17;;;;;;;6.35;3.35;;;18.30;99.90;;;;;;5022950;28;20026;-74
2021/10/20 12:07:52;;;;;;;6.75;3.55;;;18.20;99.90;;;;;;5024078;28;20037;-76
2021/10/20 12:10:19;;;;;;;9.50;3.75;;;18.30;99.90;;;;;;5025322;28;20136;-74
2021/10/20 12:12:49;;;;;;;7.25;3.22;;;18.20;99.90;;;;;;5028292;28;20409;-75
2021/10/20 12:15:18;;;;;;;12.65;3.92;;;18.10;99.90;;;;;;5028116;28;20018;-72
2021/10/20 12:17:46;;;;;;;11.82;3.85;;;18.00;99.90;;;;;;5026303;28;20032;-73
2021/10/20 12:20:14;;;;;;;6.70;3.63;;;17.90;99.90;;;;;;5027670;28;20030;-71
2021/10/20 12:22:41;;;;;;;8.32;3.25;;;17.80;99.90;;;;;;5027243;28;20133;-71
2021/10/20 12:25:08;;;;;;;6.75;3.20;;;17.80;99.90;;;;;;5027698;28;20117;-75
2021/10/20 12:27:40;;;;;;;5.95;3.08;;;17.70;99.90;;;;;;5027432;28;20155;-72
2021/10/20 12:30:08;;;;;;;6.03;3.33;;;17.70;99.90;;;;;;5027672;28;20034;-74
2021/10/20 12:32:35;;;;;;;8.00;3.60;;;17.70;99.90;;;;;;5033732;28;20040;-74
2021/10/20 12:35:15;;;;;;;15.95;4.35;;;17.70;99.90;;;;;;5029213;28;20029;-74
2021/10/20 12:37:46;;;;;;;6.75;3.40;;;17.60;99.90;;;;;;5046239;28;20069;-74
2021/10/20 12:40:24;;;;;;;9.32;4.03;;;17.50;99.90;;;;;;5046922;28;20117;-73
2021/10/20 12:43:03;;;;;;;4.38;2.80;;;17.50;99.90;;;;;;5023570;28;20025;-73
2021/10/20 12:45:30;;;;;;;7.05;3.10;;;17.40;99.90;;;;;;5044405;28;20251;-76
2021/10/20 12:48:02;;;;;;;6.57;3.13;;;17.40;99.90;;;;;;5047713;28;20077;-73